TimeEST,TemperatureF,Dew PointF,Humidity,Sea Level PressureIn,VisibilityMPH,Wind Direction,Wind SpeedMPH,Gust SpeedMPH,PrecipitationIn,Events,Conditions,WindDirDegrees,DateUTC
12:50 AM,6.8,-4.0,61,-9999,120.0,WNW,15.0,-,N/A,,Clear,300,2013-11-04 05:50:00
1:49 AM,6.8,-11.2,44,-9999,120.0,WNW,19.6,-,N/A,,Clear,300,2013-11-04 06:49:00
2:48 AM,6.8,-11.2,44,-9999,110.0,WNW,19.6,32.2,N/A,,Clear,300,2013-11-04 07:48:00
3:50 AM,6.8,-16.6,34,-9999,110.0,WNW,26.5,33.4,N/A,,Clear,300,2013-11-04 08:50:00
4:49 AM,6.8,-18.4,31,-9999,110.0,WNW,29.9,40.3,N/A,,Clear,300,2013-11-04 09:49:00
5:54 AM,8.6,-16.6,31,-9999,110.0,WNW,27.6,35.7,N/A,,Clear,300,2013-11-04 10:54:00
6:51 AM,10.4,-31.0,14,-9999,110.0,WNW,25.3,-,N/A,,Clear,300,2013-11-04 11:51:00
7:54 AM,12.2,-31.0,13,-9999,110.0,NNE,18.4,-,N/A,,Clear,20,2013-11-04 12:54:00
8:52 AM,14.0,-16.6,25,-9999,110.0,NNE,18.4,-,N/A,,Clear,30,2013-11-04 13:52:00
9:54 AM,17.6,-18.4,19,-9999,110.0,NE,16.1,-,N/A,,Clear,40,2013-11-04 14:54:00
10:51 AM,17.6,-16.6,21,-9999,110.0,NNE,13.8,-,N/A,,Partly Cloudy,20,2013-11-04 15:51:00
11:52 AM,17.6,-27.4,12,-9999,110.0,NNE,16.1,-,N/A,,Partly Cloudy,20,2013-11-04 16:52:00
12:53 PM,19.4,-22.0,15,-9999,110.0,NNE,12.7,-,N/A,,Partly Cloudy,20,2013-11-04 17:53:00
1:53 PM,17.6,-27.4,12,-9999,110.0,NNE,10.4,-,N/A,,Partly Cloudy,20,2013-11-04 18:53:00
2:48 PM,21.2,-16.6,18,-9999,115.0,NNE,10.4,-,N/A,,Partly Cloudy,30,2013-11-04 19:48:00
3:52 PM,21.2,-22.0,14,-9999,115.0,NNE,10.4,-,N/A,,Partly Cloudy,20,2013-11-04 20:52:00
4:48 PM,21.2,-18.4,17,-9999,120.0,NNE,10.4,-,N/A,,Partly Cloudy,30,2013-11-04 21:48:00
5:52 PM,21.2,-13.0,22,-9999,120.0,NE,5.8,-,N/A,,Partly Cloudy,40,2013-11-04 22:52:00
6:51 PM,24.8,-27.4,9,-9999,120.0,East,1.2,-,N/A,,Partly Cloudy,80,2013-11-04 23:51:00
7:52 PM,23.0,-16.6,17,-9999,110.0,South,5.8,-,N/A,,Partly Cloudy,170,2013-11-05 00:52:00
8:50 PM,23.0,-14.8,18,-9999,110.0,SSW,6.9,-,N/A,,Partly Cloudy,210,2013-11-05 01:50:00
9:50 PM,23.0,-16.6,17,-9999,110.0,SSW,9.2,-,N/A,,Partly Cloudy,200,2013-11-05 02:50:00
10:51 PM,23.0,-18.4,15,-9999,110.0,SSW,13.8,-,N/A,,Partly Cloudy,210,2013-11-05 03:51:00
11:49 PM,23.0,-16.6,17,-9999,110.0,SW,12.7,-,N/A,,Partly Cloudy,230,2013-11-05 04:49:00